METAR LFGJ :
2024/04/12 14:30
LFGJ 121430Z AUTO 04008KT 360V060 CAVOK 22/08 Q1031 NOSIG


TAF LFGJ :
2020/06/22 09:21
TAF LFGJ 220800Z 2209/2221 01008KT 9999 FEW035 BKN053 
      BECMG 2212/2215 CAVOK